Time;durP1;ratioP1;P1;durP2;ratioP2;P2;SDS_P1;SDS_P2;PMS_P1;PMS_P2;Temp;Humidity;BMP_temperature;BMP_pressure;BME280_temperature;BME280_humidity;BME280_pressure;Samples;Min_cycle;Max_cycle;Signal;HPM_P1;HPM_P2
2023/06/18 00:01:56;;;;;;;22.87;20.87;;;16.90;99.90;;;;;;5096413;28;20454;-67
2023/06/18 00:04:23;;;;;;;21.83;19.80;;;16.80;99.90;;;;;;5096355;28;20836;-66
2023/06/18 00:06:51;;;;;;;21.80;19.80;;;16.80;99.90;;;;;;5096219;28;20477;-66
2023/06/18 00:09:21;;;;;;;25.30;22.70;;;16.80;99.90;;;;;;5095403;28;20454;-67
2023/06/18 00:11:47;;;;;;;23.53;21.33;;;16.80;99.90;;;;;;5096259;28;20560;-67
2023/06/18 00:14:14;;;;;;;20.80;18.90;;;16.80;99.90;;;;;;5095915;28;20492;-66
2023/06/18 00:16:41;;;;;;;23.13;20.73;;;16.70;99.90;;;;;;5095878;28;20480;-67
2023/06/18 00:19:08;;;;;;;22.00;19.90;;;16.70;99.90;;;;;;5095772;28;20850;-67
2023/06/18 00:21:35;;;;;;;23.17;20.97;;;16.70;99.90;;;;;;5096098;28;21013;-67
2023/06/18 00:24:04;;;;;;;22.47;20.37;;;16.70;99.90;;;;;;5096065;28;20456;-67
2023/06/18 00:26:31;;;;;;;22.07;20.00;;;16.70;99.90;;;;;;5095789;28;20453;-66
2023/06/18 00:29:02;;;;;;;27.33;23.57;;;16.70;99.90;;;;;;5095785;28;20479;-67
2023/06/18 00:31:32;;;;;;;22.43;20.43;;;16.70;99.90;;;;;;5095324;28;20493;-67
2023/06/18 00:34:04;;;;;;;23.23;20.73;;;16.70;99.90;;;;;;5095102;28;20466;-66
2023/06/18 00:36:31;;;;;;;23.13;20.73;;;16.60;99.90;;;;;;5095591;28;20442;-67
2023/06/18 00:38:58;;;;;;;24.70;22.20;;;16.60;99.90;;;;;;5095586;28;20770;-67
2023/06/18 00:41:27;;;;;;;25.00;22.40;;;16.60;99.90;;;;;;5095676;28;20560;-67
2023/06/18 00:43:57;;;;;;;23.77;21.30;;;16.60;99.90;;;;;;5095520;28;20461;-67
2023/06/18 00:46:25;;;;;;;22.20;19.90;;;16.60;99.90;;;;;;5095398;28;20540;-67
2023/06/18 00:48:52;;;;;;;23.97;21.57;;;16.50;99.90;;;;;;5095338;28;20462;-67
2023/06/18 00:51:21;;;;;;;24.07;21.67;;;16.50;99.90;;;;;;5095131;28;20548;-67
2023/06/18 00:53:48;;;;;;;23.40;21.20;;;16.50;99.90;;;;;;5094881;28;20981;-66
2023/06/18 00:56:15;;;;;;;24.03;21.67;;;16.50;99.90;;;;;;5095126;28;20467;-66
2023/06/18 00:58:43;;;;;;;25.90;23.37;;;16.50;99.90;;;;;;5095152;28;20840;-66
2023/06/18 01:01:10;;;;;;;25.00;22.30;;;16.40;99.90;;;;;;5095275;28;20503;-67
2023/06/18 01:03:37;;;;;;;24.60;22.10;;;16.40;99.90;;;;;;5095086;28;20449;-67
2023/06/18 01:06:06;;;;;;;25.70;23.20;;;16.40;99.90;;;;;;5094767;28;20623;-66
2023/06/18 01:08:33;;;;;;;25.03;22.53;;;16.40;99.90;;;;;;5094987;28;20457;-67
2023/06/18 01:11:03;;;;;;;23.10;20.70;;;16.40;99.90;;;;;;5095029;28;20465;-67
2023/06/18 01:13:32;;;;;;;23.10;20.90;;;16.40;99.90;;;;;;5094489;28;20546;-67
2023/06/18 01:16:03;;;;;;;23.70;21.50;;;16.30;99.90;;;;;;5094790;28;20457;-67
2023/06/18 01:18:34;;;;;;;23.70;21.20;;;16.30;99.90;;;;;;5094754;28;20437;-67
2023/06/18 01:21:05;;;;;;;23.30;20.80;;;16.30;99.90;;;;;;5094035;28;20453;-67
2023/06/18 01:23:45;;;;;;;22.93;20.83;;;16.30;99.90;;;;;;5094624;28;20457;-67
2023/06/18 01:26:12;;;;;;;23.97;21.67;;;16.30;99.90;;;;;;5094643;28;20444;-66
2023/06/18 01:28:41;;;;;;;22.90;20.80;;;16.20;99.90;;;;;;5094634;28;20549;-67
2023/06/18 01:31:10;;;;;;;23.70;21.30;;;16.20;99.90;;;;;;5094382;28;20453;-67
2023/06/18 01:33:39;;;;;;;23.60;21.20;;;16.20;99.90;;;;;;5094191;28;20480;-66
2023/06/18 01:36:10;;;;;;;24.40;22.00;;;16.20;99.90;;;;;;5094543;28;20901;-67
2023/06/18 01:38:44;;;;;;;23.63;21.23;;;16.20;99.90;;;;;;5094627;28;20801;-67
2023/06/18 01:41:16;;;;;;;23.97;21.67;;;16.20;99.90;;;;;;5094488;28;20528;-67
2023/06/18 01:43:48;;;;;;;24.83;22.33;;;16.20;99.90;;;;;;5094358;28;20452;-67
2023/06/18 01:46:21;;;;;;;24.33;21.93;;;16.20;99.90;;;;;;5094297;28;20770;-66
2023/06/18 01:48:52;;;;;;;22.77;20.47;;;16.10;99.90;;;;;;5094339;28;20442;-66
2023/06/18 01:51:21;;;;;;;23.27;20.87;;;16.10;99.90;;;;;;5094197;28;20438;-67
2023/06/18 01:53:51;;;;;;;23.80;21.50;;;16.10;99.90;;;;;;5094015;28;20571;-67
2023/06/18 01:56:18;;;;;;;28.20;23.30;;;16.10;99.90;;;;;;5093934;28;20543;-67
2023/06/18 01:58:48;;;;;;;22.67;20.57;;;16.10;99.90;;;;;;5094104;28;20468;-67
2023/06/18 02:01:16;;;;;;;22.80;20.60;;;16.00;99.90;;;;;;5094081;28;20799;-66
2023/06/18 02:03:44;;;;;;;25.20;22.77;;;16.00;99.90;;;;;;5093864;28;20457;-67
2023/06/18 02:06:10;;;;;;;24.93;22.60;;;16.00;99.90;;;;;;5094258;28;20548;-66
2023/06/18 02:08:37;;;;;;;22.37;20.30;;;16.00;99.90;;;;;;5093918;28;20456;-67
2023/06/18 02:11:07;;;;;;;22.87;20.67;;;16.00;99.90;;;;;;5093810;28;20950;-67
2023/06/18 02:13:34;;;;;;;24.90;22.40;;;16.00;99.90;;;;;;5093754;28;20517;-67
2023/06/18 02:16:04;;;;;;;24.43;22.17;;;16.00;99.90;;;;;;5093874;28;20794;-66
2023/06/18 02:18:32;;;;;;;23.40;21.20;;;16.00;99.90;;;;;;5093703;28;20460;-67
2023/06/18 02:20:59;;;;;;;23.50;21.10;;;16.00;99.90;;;;;;5094075;28;20457;-67
2023/06/18 02:23:26;;;;;;;24.07;21.77;;;16.00;99.90;;;;;;5093845;28;20449;-67
2023/06/18 02:25:56;;;;;;;23.57;21.17;;;16.00;99.90;;;;;;5094136;28;20457;-67
2023/06/18 02:28:23;;;;;;;23.73;21.43;;;16.00;99.90;;;;;;5093623;28;20862;-66
2023/06/18 02:30:50;;;;;;;24.73;22.33;;;16.00;99.90;;;;;;5093534;28;20453;-67
2023/06/18 02:33:18;;;;;;;22.47;20.37;;;15.90;99.90;;;;;;5096691;28;20499;-66
2023/06/18 02:35:46;;;;;;;23.70;21.33;;;16.00;99.90;;;;;;5097901;28;20831;-67
2023/06/18 02:38:13;;;;;;;24.13;21.83;;;16.00;99.90;;;;;;5097865;28;20500;-67
2023/06/18 02:40:40;;;;;;;23.30;21.07;;;16.00;99.90;;;;;;5098016;28;20457;-67
2023/06/18 02:43:08;;;;;;;23.83;21.53;;;16.00;99.90;;;;;;5097823;28;20555;-67
2023/06/18 02:45:35;;;;;;;24.50;22.07;;;15.90;99.90;;;;;;5097234;28;20510;-67
2023/06/18 02:48:02;;;;;;;23.40;21.10;;;15.90;99.90;;;;;;5097624;28;20528;-67
2023/06/18 02:50:29;;;;;;;22.40;20.30;;;15.90;99.90;;;;;;5097537;28;20485;-67
2023/06/18 02:52:57;;;;;;;24.63;22.23;;;15.90;99.90;;;;;;5097351;28;20976;-67
2023/06/18 02:55:24;;;;;;;24.07;21.70;;;15.90;99.90;;;;;;5097846;28;20554;-67
2023/06/18 02:57:52;;;;;;;23.60;21.40;;;15.90;99.90;;;;;;5097226;28;20456;-67
2023/06/18 03:00:21;;;;;;;23.20;21.00;;;15.90;99.90;;;;;;5097603;28;20594;-67
2023/06/18 03:02:51;;;;;;;23.47;21.00;;;15.80;99.90;;;;;;5097259;28;20882;-67
2023/06/18 03:05:18;;;;;;;23.30;21.10;;;15.90;99.90;;;;;;5097356;28;20479;-66
2023/06/18 03:07:45;;;;;;;24.57;22.17;;;15.90;99.90;;;;;;5097092;28;20526;-66
2023/06/18 03:10:13;;;;;;;24.90;22.43;;;15.90;99.90;;;;;;5097194;28;20457;-67
2023/06/18 03:12:40;;;;;;;23.97;21.47;;;15.80;99.90;;;;;;5097033;28;20477;-67
2023/06/18 03:15:07;;;;;;;23.03;20.83;;;15.80;99.90;;;;;;5096922;28;21123;-67
2023/06/18 03:17:34;;;;;;;23.97;21.57;;;15.80;99.90;;;;;;5097076;28;20540;-67
2023/06/18 03:20:01;;;;;;;23.93;21.73;;;15.80;99.90;;;;;;5097018;28;20453;-66
2023/06/18 03:22:29;;;;;;;23.20;20.87;;;15.80;99.90;;;;;;5096900;28;20453;-66
2023/06/18 03:25:00;;;;;;;22.30;19.90;;;15.80;99.90;;;;;;5096713;28;20450;-66
2023/06/18 03:27:28;;;;;;;23.57;21.23;;;15.80;99.90;;;;;;5097195;28;20465;-66
2023/06/18 03:29:56;;;;;;;24.93;22.40;;;15.80;99.90;;;;;;5097149;28;20457;-66
2023/06/18 03:32:23;;;;;;;24.20;21.80;;;15.80;99.90;;;;;;5096790;28;20453;-67
2023/06/18 03:34:50;;;;;;;24.47;21.53;;;15.80;99.90;;;;;;5096828;28;20485;-67
2023/06/18 03:37:17;;;;;;;25.10;22.47;;;15.80;99.90;;;;;;5096625;28;20937;-66
2023/06/18 03:39:44;;;;;;;25.13;22.53;;;15.80;99.90;;;;;;5096514;28;20536;-67
2023/06/18 03:42:11;;;;;;;23.70;21.40;;;15.80;99.90;;;;;;5096657;28;20541;-65
2023/06/18 03:44:39;;;;;;;24.07;21.77;;;15.80;99.90;;;;;;5095384;28;20475;-66
2023/06/18 03:47:07;;;;;;;23.27;21.07;;;15.80;99.90;;;;;;5096419;28;20457;-67
2023/06/18 03:49:34;;;;;;;24.20;21.80;;;15.80;99.90;;;;;;5096447;28;20465;-67
2023/06/18 03:52:01;;;;;;;23.73;21.37;;;15.80;99.90;;;;;;5096462;28;20513;-67
2023/06/18 03:54:28;;;;;;;24.90;22.40;;;15.80;99.90;;;;;;5096135;28;20477;-67
2023/06/18 03:56:54;;;;;;;25.90;23.40;;;15.80;99.90;;;;;;5096105;28;20544;-66
2023/06/18 03:59:21;;;;;;;24.60;22.10;;;15.80;99.90;;;;;;5096320;28;20453;-68
2023/06/18 04:01:49;;;;;;;25.57;22.87;;;15.80;99.90;;;;;;5096368;28;20465;-68
2023/06/18 04:04:16;;;;;;;25.50;22.80;;;15.90;99.90;;;;;;5096272;28;20461;-68
2023/06/18 04:06:44;;;;;;;24.70;22.47;;;15.90;99.90;;;;;;5096465;28;20540;-66
2023/06/18 04:09:11;;;;;;;24.40;22.00;;;15.90;99.90;;;;;;5095869;28;20930;-66
2023/06/18 04:11:38;;;;;;;26.90;24.30;;;15.90;99.90;;;;;;5095572;28;20513;-66
2023/06/18 04:14:05;;;;;;;26.93;24.27;;;16.00;99.90;;;;;;5095700;28;20472;-66
2023/06/18 04:16:32;;;;;;;27.07;24.40;;;16.00;99.90;;;;;;5095997;28;20846;-66
2023/06/18 04:19:01;;;;;;;27.33;24.73;;;16.00;99.90;;;;;;5096115;28;20531;-66
2023/06/18 04:21:27;;;;;;;26.13;23.73;;;16.10;99.90;;;;;;5095962;28;20887;-66
2023/06/18 04:23:55;;;;;;;25.67;23.27;;;16.10;99.90;;;;;;5096065;28;20479;-66
2023/06/18 04:26:22;;;;;;;25.23;22.60;;;16.10;99.90;;;;;;5096005;28;20556;-66
2023/06/18 04:28:49;;;;;;;26.40;23.80;;;16.10;99.90;;;;;;5095633;28;20453;-66
2023/06/18 04:31:16;;;;;;;25.80;23.00;;;16.20;99.90;;;;;;5095669;28;20484;-66
2023/06/18 04:33:43;;;;;;;26.63;24.13;;;16.20;99.90;;;;;;5095170;28;20580;-66
2023/06/18 04:36:12;;;;;;;27.10;24.60;;;16.30;99.90;;;;;;5095592;28;20464;-66
2023/06/18 04:38:38;;;;;;;25.57;23.07;;;16.30;99.90;;;;;;5094977;28;20464;-66
2023/06/18 04:41:05;;;;;;;26.43;23.73;;;16.30;99.90;;;;;;5095407;28;20485;-66
2023/06/18 04:43:33;;;;;;;26.13;23.73;;;16.30;99.90;;;;;;5095422;28;20457;-66
2023/06/18 04:46:01;;;;;;;27.53;24.60;;;16.40;99.90;;;;;;5094940;28;20934;-66
2023/06/18 04:48:27;;;;;;;29.07;26.30;;;16.40;99.90;;;;;;5095009;28;20464;-66
2023/06/18 04:50:54;;;;;;;34.23;30.83;;;16.40;99.90;;;;;;5095227;28;20541;-66
2023/06/18 04:53:23;;;;;;;36.20;32.43;;;16.50;99.90;;;;;;5094915;28;20544;-66
2023/06/18 04:55:50;;;;;;;32.10;29.07;;;16.50;99.90;;;;;;5094669;28;20586;-66
2023/06/18 04:58:16;;;;;;;35.50;32.10;;;16.50;99.90;;;;;;5095172;28;20535;-66
2023/06/18 05:00:44;;;;;;;34.03;30.63;;;16.60;99.90;;;;;;5094723;28;21000;-66
2023/06/18 05:03:10;;;;;;;30.30;27.30;;;16.60;99.90;;;;;;5095093;28;20463;-67
2023/06/18 05:05:39;;;;;;;28.97;26.17;;;16.70;99.90;;;;;;5094755;28;20496;-67
2023/06/18 05:08:06;;;;;;;28.70;25.77;;;16.70;99.90;;;;;;5094997;28;20548;-67
2023/06/18 05:10:35;;;;;;;28.63;25.83;;;16.80;99.90;;;;;;5094991;28;20468;-67
2023/06/18 05:13:02;;;;;;;31.17;27.97;;;16.80;99.90;;;;;;5094692;28;20481;-67
2023/06/18 05:15:29;;;;;;;29.70;26.67;;;17.00;99.90;;;;;;5095717;28;20564;-67
2023/06/18 05:17:56;;;;;;;27.33;24.80;;;17.00;99.90;;;;;;5095012;28;20475;-67
2023/06/18 05:20:23;;;;;;;31.70;25.43;;;17.10;99.90;;;;;;5094741;28;20931;-67
2023/06/18 05:22:50;;;;;;;25.47;23.17;;;17.20;99.90;;;;;;5094879;28;20568;-66
2023/06/18 05:25:17;;;;;;;26.43;23.83;;;17.30;99.90;;;;;;5095155;28;20450;-67
2023/06/18 05:27:45;;;;;;;25.73;23.23;;;17.30;99.90;;;;;;5094542;28;21052;-67
2023/06/18 05:30:15;;;;;;;23.40;21.20;;;17.40;99.90;;;;;;5094922;28;20491;-66
2023/06/18 05:32:42;;;;;;;25.30;22.90;;;17.40;99.90;;;;;;5094511;28;20480;-67
2023/06/18 05:35:09;;;;;;;25.30;22.90;;;17.50;99.90;;;;;;5094466;28;20571;-67
2023/06/18 05:37:36;;;;;;;23.10;21.00;;;17.60;99.90;;;;;;5094631;28;20464;-67
2023/06/18 05:40:03;;;;;;;23.80;21.53;;;17.70;99.90;;;;;;5094534;28;20453;-67
2023/06/18 05:42:29;;;;;;;23.73;21.50;;;17.80;99.90;;;;;;5094441;28;20552;-67
2023/06/18 05:44:58;;;;;;;24.30;21.90;;;18.00;99.90;;;;;;5094544;28;20536;-67
2023/06/18 05:47:28;;;;;;;24.93;22.63;;;18.00;99.90;;;;;;5094414;28;20463;-67
2023/06/18 05:49:57;;;;;;;23.23;20.90;;;18.10;99.90;;;;;;5094395;28;20489;-66
2023/06/18 05:52:27;;;;;;;23.90;21.50;;;18.20;99.90;;;;;;5094334;28;20467;-67
2023/06/18 05:54:54;;;;;;;20.97;19.10;;;18.30;99.90;;;;;;5093594;28;20487;-66
2023/06/18 05:57:20;;;;;;;20.67;18.57;;;18.40;99.90;;;;;;5094297;28;20847;-66
2023/06/18 05:59:48;;;;;;;20.00;18.20;;;18.40;99.90;;;;;;5093677;28;20989;-66
2023/06/18 06:02:16;;;;;;;21.17;19.07;;;18.40;99.90;;;;;;5094114;28;20472;-67
2023/06/18 06:04:43;;;;;;;21.63;19.57;;;18.40;99.90;;;;;;5094070;28;20792;-67
2023/06/18 06:07:10;;;;;;;19.77;17.87;;;18.50;99.90;;;;;;5096690;28;20963;-66
2023/06/18 06:09:37;;;;;;;19.80;17.73;;;18.60;99.90;;;;;;5100557;28;20464;-67
2023/06/18 06:12:04;;;;;;;20.57;18.43;;;18.60;99.90;;;;;;5100194;28;20508;-67
2023/06/18 06:14:31;;;;;;;17.80;16.20;;;18.60;99.90;;;;;;5100494;28;20491;-66
2023/06/18 06:16:58;;;;;;;17.37;15.77;;;18.80;99.90;;;;;;5100195;28;20771;-67
2023/06/18 06:19:26;;;;;;;17.10;15.43;;;18.90;99.90;;;;;;5100188;28;20481;-67
2023/06/18 06:21:53;;;;;;;14.37;12.97;;;18.80;99.90;;;;;;5100135;28;20544;-67
2023/06/18 06:24:20;;;;;;;14.30;12.90;;;18.90;99.90;;;;;;5100013;28;20456;-67
2023/06/18 06:26:47;;;;;;;16.77;14.50;;;18.90;99.90;;;;;;5100176;28;20544;-67
2023/06/18 06:29:15;;;;;;;15.40;13.83;;;18.90;99.90;;;;;;5100494;28;20556;-67
2023/06/18 06:31:42;;;;;;;15.23;13.73;;;19.00;99.90;;;;;;5100086;28;20456;-67
2023/06/18 06:34:09;;;;;;;15.30;12.50;;;19.10;99.90;;;;;;5100208;28;20493;-67
2023/06/18 06:36:38;;;;;;;14.07;12.77;;;19.10;99.90;;;;;;5100273;28;20452;-67
2023/06/18 06:39:05;;;;;;;14.07;12.67;;;19.20;99.90;;;;;;5100229;28;20463;-67
2023/06/18 06:41:32;;;;;;;14.60;13.20;;;19.30;99.90;;;;;;5100404;28;20453;-67
2023/06/18 06:43:58;;;;;;;13.30;11.90;;;19.30;99.90;;;;;;5099796;28;20566;-67
2023/06/18 06:46:25;;;;;;;11.03;9.80;;;19.40;99.90;;;;;;5099886;28;20449;-67
2023/06/18 06:48:55;;;;;;;10.80;9.70;;;19.50;99.90;;;;;;5099888;28;20464;-67
2023/06/18 06:51:22;;;;;;;10.70;9.70;;;19.50;99.90;;;;;;5100034;28;20548;-67
2023/06/18 06:53:50;;;;;;;8.57;7.77;;;19.60;99.90;;;;;;5099784;28;20459;-67
2023/06/18 06:56:17;;;;;;;8.60;7.80;;;19.60;99.90;;;;;;5100100;28;20812;-67
2023/06/18 06:58:47;;;;;;;9.33;8.43;;;19.60;99.90;;;;;;5099668;28;20529;-67
2023/06/18 07:01:14;;;;;;;8.37;7.57;;;19.70;99.90;;;;;;5099991;28;20529;-67
2023/06/18 07:03:41;;;;;;;8.67;7.80;;;19.80;99.90;;;;;;5099620;28;20475;-67
2023/06/18 07:06:08;;;;;;;8.20;7.40;;;19.90;99.90;;;;;;5100074;28;20552;-66
2023/06/18 07:08:35;;;;;;;10.13;8.53;;;20.00;99.90;;;;;;5100007;28;20543;-66
2023/06/18 07:11:03;;;;;;;8.20;7.40;;;20.00;99.90;;;;;;5100061;28;20461;-66
2023/06/18 07:13:30;;;;;;;9.37;8.57;;;20.00;99.90;;;;;;5099607;28;20477;-66
2023/06/18 07:15:57;;;;;;;8.77;7.97;;;20.00;99.90;;;;;;5099891;28;20489;-66
2023/06/18 07:18:24;;;;;;;9.87;9.00;;;20.20;99.90;;;;;;5098694;28;20544;-66
2023/06/18 07:20:50;;;;;;;10.53;9.50;;;20.20;99.90;;;;;;5096439;28;20567;-66
2023/06/18 07:23:17;;;;;;;9.47;8.57;;;20.30;99.90;;;;;;5096785;28;20457;-66
2023/06/18 07:25:44;;;;;;;9.83;8.83;;;20.40;99.90;;;;;;5096904;28;20544;-66
2023/06/18 07:28:12;;;;;;;9.73;8.90;;;20.40;99.90;;;;;;5096527;28;20522;-66
2023/06/18 07:30:39;;;;;;;9.40;8.60;;;20.30;99.90;;;;;;5096655;28;20463;-66
2023/06/18 07:33:06;;;;;;;9.50;8.70;;;20.30;99.90;;;;;;5096772;28;20551;-66
2023/06/18 07:35:33;;;;;;;9.80;9.00;;;20.40;99.90;;;;;;5096855;28;20568;-66
2023/06/18 07:38:03;;;;;;;9.57;8.70;;;20.50;99.90;;;;;;5096743;28;20518;-66
2023/06/18 07:40:33;;;;;;;9.77;8.97;;;20.40;99.90;;;;;;5096134;28;20464;-66
2023/06/18 07:43:00;;;;;;;9.97;9.00;;;20.40;99.90;;;;;;5097222;28;20532;-66
2023/06/18 07:45:28;;;;;;;10.97;9.97;;;20.40;99.90;;;;;;5096275;28;20457;-66
2023/06/18 07:47:55;;;;;;;9.80;8.97;;;20.50;99.90;;;;;;5096078;28;20956;-66
2023/06/18 07:50:24;;;;;;;11.73;10.63;;;20.50;99.90;;;;;;5096296;28;20461;-66
2023/06/18 07:52:51;;;;;;;11.10;10.10;;;20.50;99.90;;;;;;5096422;28;20489;-68
2023/06/18 07:55:21;;;;;;;10.10;9.10;;;20.50;99.90;;;;;;5095949;28;20477;-66
2023/06/18 07:57:48;;;;;;;11.80;10.63;;;20.50;99.90;;;;;;5095929;28;20483;-67
2023/06/18 08:00:15;;;;;;;10.43;9.53;;;20.50;99.90;;;;;;5096218;28;20509;-68
2023/06/18 08:02:44;;;;;;;10.33;9.47;;;20.50;99.90;;;;;;5095907;28;20457;-65
2023/06/18 08:05:15;;;;;;;10.30;9.40;;;20.60;99.90;;;;;;5095907;28;20548;-66
2023/06/18 08:07:41;;;;;;;8.90;7.97;;;20.80;99.90;;;;;;5095718;28;20515;-66
2023/06/18 08:10:09;;;;;;;9.30;8.50;;;21.00;99.90;;;;;;5096038;28;20806;-66
2023/06/18 08:12:36;;;;;;;9.80;8.57;;;21.10;99.90;;;;;;5095167;28;20481;-66
2023/06/18 08:15:03;;;;;;;9.73;8.70;;;21.10;99.90;;;;;;5095574;28;20564;-66
2023/06/18 08:17:30;;;;;;;9.10;8.40;;;21.10;99.90;;;;;;5095498;28;20953;-66
2023/06/18 08:19:58;;;;;;;17.97;16.17;;;21.10;99.90;;;;;;5095364;28;20493;-66
2023/06/18 08:22:28;;;;;;;9.60;8.70;;;21.20;99.90;;;;;;5095845;28;20464;-66
2023/06/18 08:24:55;;;;;;;9.40;8.40;;;21.20;99.90;;;;;;5095631;28;20863;-66
2023/06/18 08:27:22;;;;;;;9.47;8.67;;;21.40;99.90;;;;;;5095598;28;20463;-66
2023/06/18 08:29:49;;;;;;;7.80;7.20;;;21.50;99.90;;;;;;5094728;28;20452;-66
2023/06/18 08:32:16;;;;;;;7.50;6.90;;;21.70;99.90;;;;;;5095385;28;20507;-66
2023/06/18 08:34:45;;;;;;;6.57;6.07;;;21.70;99.90;;;;;;5095261;28;20457;-66
2023/06/18 08:37:14;;;;;;;7.07;6.50;;;21.70;99.90;;;;;;5095470;28;20541;-66
2023/06/18 08:39:48;;;;;;;6.33;5.80;;;21.70;99.90;;;;;;5095669;28;20453;-66
2023/06/18 08:42:20;;;;;;;7.20;6.60;;;21.70;99.90;;;;;;5095279;28;20464;-66
2023/06/18 08:44:47;;;;;;;7.23;6.63;;;21.70;99.90;;;;;;5095465;28;20445;-66
2023/06/18 08:47:16;;;;;;;7.80;6.90;;;21.80;99.90;;;;;;5095150;28;20545;-66
2023/06/18 08:49:43;;;;;;;7.50;6.90;;;21.80;99.90;;;;;;5094791;28;20464;-66
2023/06/18 08:52:17;;;;;;;6.97;6.37;;;21.90;99.90;;;;;;5095214;28;20480;-66
2023/06/18 08:54:50;;;;;;;7.50;6.90;;;21.90;99.90;;;;;;5095097;28;20452;-66
2023/06/18 08:57:23;;;;;;;6.47;5.87;;;21.90;99.90;;;;;;5094772;28;20862;-66
2023/06/18 08:59:51;;;;;;;7.37;6.77;;;22.00;99.90;;;;;;5094612;28;20887;-66
2023/06/18 09:02:21;;;;;;;7.23;6.50;;;22.00;99.90;;;;;;5095034;28;20454;-67
2023/06/18 09:04:48;;;;;;;6.60;6.00;;;22.00;99.90;;;;;;5094924;28;20536;-67
2023/06/18 09:07:16;;;;;;;8.03;6.50;;;22.00;99.90;;;;;;5094683;28;20453;-67
2023/06/18 09:09:44;;;;;;;7.47;6.57;;;22.30;99.90;;;;;;5094718;28;20504;-66
2023/06/18 09:12:11;;;;;;;6.30;5.80;;;22.40;99.90;;;;;;5094369;28;20809;-67
2023/06/18 09:14:38;;;;;;;6.13;5.70;;;22.50;99.90;;;;;;5094526;28;20518;-67
2023/06/18 09:17:05;;;;;;;5.70;5.20;;;22.50;99.90;;;;;;5094474;28;20477;-67
2023/06/18 09:19:34;;;;;;;7.70;6.13;;;22.60;99.90;;;;;;5094832;28;20454;-66
2023/06/18 09:22:13;;;;;;;6.77;6.17;;;22.60;99.90;;;;;;5094805;28;20786;-66
2023/06/18 09:24:42;;;;;;;6.67;6.17;;;22.70;99.90;;;;;;5094788;28;20449;-67
2023/06/18 09:27:09;;;;;;;8.00;5.70;;;22.80;99.90;;;;;;5094100;28;20941;-67
2023/06/18 09:29:38;;;;;;;5.90;5.40;;;22.90;99.90;;;;;;5094159;28;20458;-66
2023/06/18 09:32:10;;;;;;;7.20;6.13;;;22.90;99.90;;;;;;5094190;28;20962;-66
2023/06/18 09:34:37;;;;;;;6.30;5.60;;;22.80;99.90;;;;;;5093827;28;20540;-67
2023/06/18 09:37:06;;;;;;;5.83;5.43;;;22.80;99.90;;;;;;5094233;28;20530;-66
2023/06/18 09:39:35;;;;;;;7.83;5.60;;;22.80;99.90;;;;;;5094040;28;20487;-66
2023/06/18 09:42:07;;;;;;;5.10;4.57;;;22.80;99.90;;;;;;5093279;28;20482;-67
2023/06/18 09:44:34;;;;;;;5.83;5.27;;;22.90;99.90;;;;;;5094270;28;20536;-67
2023/06/18 09:47:03;;;;;;;5.80;5.30;;;23.00;99.90;;;;;;5093963;28;20549;-67
2023/06/18 09:49:30;;;;;;;6.47;4.83;;;23.00;99.90;;;;;;5094317;28;20453;-66
2023/06/18 09:51:57;;;;;;;5.53;5.13;;;23.10;99.90;;;;;;5094308;28;20457;-67
2023/06/18 09:54:24;;;;;;;5.93;5.40;;;23.30;99.90;;;;;;5094066;28;20917;-67
2023/06/18 09:56:57;;;;;;;4.83;4.43;;;23.50;99.90;;;;;;5094118;28;20491;-67
2023/06/18 09:59:26;;;;;;;4.87;4.47;;;23.60;99.90;;;;;;5093841;28;20456;-67
2023/06/18 10:01:54;;;;;;;5.20;4.80;;;23.60;99.90;;;;;;5093995;28;20449;-66
2023/06/18 10:04:22;;;;;;;5.10;4.70;;;23.60;99.90;;;;;;5093558;28;20514;-66
2023/06/18 10:06:52;;;;;;;5.57;4.93;;;23.70;99.90;;;;;;5094214;28;20531;-66
2023/06/18 10:09:21;;;;;;;5.70;5.30;;;23.50;99.90;;;;;;5095648;28;20453;-66
2023/06/18 10:11:50;;;;;;;11.70;6.07;;;23.50;99.90;;;;;;5094383;28;20491;-67
2023/06/18 10:14:22;;;;;;;6.50;5.90;;;23.60;99.90;;;;;;5094225;28;20882;-66
2023/06/18 10:16:55;;;;;;;5.00;4.60;;;23.70;99.90;;;;;;5094511;28;20465;-67
2023/06/18 10:19:26;;;;;;;5.20;4.80;;;23.70;99.90;;;;;;5094245;28;20442;-67
2023/06/18 10:21:58;;;;;;;5.90;5.40;;;23.80;99.90;;;;;;5095532;28;20824;-67
2023/06/18 10:24:31;;;;;;;4.90;4.50;;;23.90;99.90;;;;;;5096407;28;20532;-67
2023/06/18 10:26:58;;;;;;;5.70;5.30;;;23.90;99.90;;;;;;5096101;28;20743;-67
2023/06/18 10:29:25;;;;;;;4.93;4.63;;;23.90;99.90;;;;;;5094246;28;20468;-67
2023/06/18 10:31:55;;;;;;;5.87;5.37;;;23.90;99.90;;;;;;5094074;28;20488;-67
2023/06/18 10:34:22;;;;;;;5.40;4.47;;;23.90;99.90;;;;;;5094290;28;20590;-67
2023/06/18 10:36:50;;;;;;;5.37;4.97;;;23.90;99.90;;;;;;5094588;28;20489;-67
2023/06/18 10:39:18;;;;;;;5.20;4.80;;;23.90;99.90;;;;;;5094563;28;20554;-67
2023/06/18 10:41:46;;;;;;;6.87;5.60;;;23.90;99.90;;;;;;5094383;28;20536;-67
2023/06/18 10:44:12;;;;;;;6.43;5.23;;;24.00;99.90;;;;;;5094745;28;20453;-67
2023/06/18 10:46:39;;;;;;;5.40;5.00;;;24.00;99.90;;;;;;5094062;28;20727;-67
2023/06/18 10:49:16;;;;;;;5.40;5.00;;;24.10;99.90;;;;;;5093974;28;20464;-67
2023/06/18 10:52:24;;;;;;;5.10;4.60;;;24.20;99.90;;;;;;5094715;28;20499;-67
2023/06/18 10:54:54;;;;;;;5.40;5.00;;;24.30;99.90;;;;;;5097148;28;20531;-66
2023/06/18 10:57:26;;;;;;;5.13;4.63;;;24.30;99.90;;;;;;5097223;28;20461;-66
2023/06/18 10:59:53;;;;;;;4.67;4.27;;;24.30;99.90;;;;;;5097466;28;20448;-66
2023/06/18 11:02:32;;;;;;;8.23;4.43;;;24.30;99.90;;;;;;5097212;28;20891;-66
2023/06/18 11:05:00;;;;;;;5.40;4.93;;;24.20;99.90;;;;;;5097502;28;20506;-65
2023/06/18 11:07:27;;;;;;;5.60;5.10;;;24.30;99.90;;;;;;5096776;28;20463;-66
2023/06/18 11:09:57;;;;;;;5.00;4.70;;;24.30;99.90;;;;;;5097103;28;20453;-67
2023/06/18 11:12:26;;;;;;;5.27;4.87;;;24.40;99.90;;;;;;5096576;28;20554;-67
2023/06/18 11:15:06;;;;;;;5.90;5.43;;;24.30;99.90;;;;;;5097026;28;20450;-66
2023/06/18 11:17:34;;;;;;;5.13;4.73;;;24.50;99.90;;;;;;5097213;28;20663;-67
2023/06/18 11:20:04;;;;;;;5.13;4.63;;;24.60;99.90;;;;;;5097440;28;20453;-66
2023/06/18 11:22:31;;;;;;;8.90;7.87;;;24.80;99.90;;;;;;5097117;28;20442;-66
2023/06/18 11:24:59;;;;;;;5.50;5.00;;;25.30;99.90;;;;;;5096530;28;20457;-66
2023/06/18 11:27:27;;;;;;;5.13;4.40;;;25.90;99.90;;;;;;5096510;28;20461;-66
2023/06/18 11:29:56;;;;;;;5.33;4.83;;;26.50;97.90;;;;;;5096789;28;20463;-66
2023/06/18 11:32:24;;;;;;;4.97;4.47;;;27.10;94.30;;;;;;5096798;28;20457;-66
2023/06/18 11:34:51;;;;;;;5.00;4.30;;;28.00;90.70;;;;;;5096197;28;20464;-67
2023/06/18 11:37:19;;;;;;;4.27;3.97;;;29.10;82.20;;;;;;5096222;28;20477;-67
2023/06/18 11:39:46;;;;;;;5.33;4.93;;;30.10;65.10;;;;;;5096522;28;20993;-67
2023/06/18 11:42:14;;;;;;;4.20;3.80;;;31.10;55.00;;;;;;5096246;28;20936;-67
2023/06/18 11:44:49;;;;;;;4.80;4.37;;;31.80;47.20;;;;;;5095979;28;20454;-67
2023/06/18 11:47:16;;;;;;;4.83;4.43;;;32.30;45.90;;;;;;5096171;28;20459;-66
2023/06/18 11:49:43;;;;;;;4.13;3.83;;;32.50;43.20;;;;;;5096075;28;20556;-67
2023/06/18 11:52:11;;;;;;;5.33;4.93;;;32.70;42.00;;;;;;5095805;28;20454;-66
2023/06/18 11:54:40;;;;;;;4.80;4.40;;;31.90;38.00;;;;;;5096113;28;20453;-66
2023/06/18 11:57:08;;;;;;;6.03;5.53;;;31.40;39.30;;;;;;5096145;28;20491;-67
2023/06/18 11:59:36;;;;;;;4.87;4.47;;;31.50;39.30;;;;;;5096091;28;20554;-66
2023/06/18 12:02:12;;;;;;;4.13;3.83;;;32.00;38.90;;;;;;5096093;28;20783;-66
2023/06/18 12:04:39;;;;;;;5.70;5.23;;;32.10;38.20;;;;;;5095630;28;20495;-67
2023/06/18 12:07:06;;;;;;;4.70;4.40;;;31.70;38.90;;;;;;5095979;28;20465;-66
2023/06/18 12:09:35;;;;;;;5.10;4.60;;;31.20;38.20;;;;;;5095814;28;20463;-66
2023/06/18 12:12:14;;;;;;;5.40;5.00;;;30.90;39.70;;;;;;5095381;28;20776;-66
2023/06/18 12:14:49;;;;;;;5.73;5.10;;;30.60;40.00;;;;;;5095958;28;20442;-67
2023/06/18 12:17:23;;;;;;;5.77;5.27;;;30.10;43.10;;;;;;5095721;28;20856;-66
2023/06/18 12:19:56;;;;;;;6.63;5.77;;;29.50;43.20;;;;;;5095911;28;20835;-66
2023/06/18 12:22:23;;;;;;;6.50;6.00;;;29.10;45.90;;;;;;5095748;28;20529;-66
2023/06/18 12:24:50;;;;;;;5.53;5.13;;;28.70;47.00;;;;;;5095631;28;20460;-66
2023/06/18 12:27:19;;;;;;;5.73;5.30;;;28.60;47.60;;;;;;5095601;28;20784;-67
2023/06/18 12:29:45;;;;;;;5.20;4.80;;;29.40;47.70;;;;;;5095347;28;20459;-66
2023/06/18 12:32:13;;;;;;;5.00;4.60;;;30.40;45.20;;;;;;5095690;28;20612;-66
2023/06/18 12:34:40;;;;;;;6.00;5.53;;;31.30;42.20;;;;;;5095956;28;20453;-66
2023/06/18 12:37:08;;;;;;;5.27;4.77;;;32.00;37.50;;;;;;5094851;28;20523;-68
2023/06/18 12:39:36;;;;;;;5.03;4.63;;;32.10;35.20;;;;;;5094948;28;20454;-65
2023/06/18 12:42:09;;;;;;;5.40;4.90;;;31.90;34.00;;;;;;5094989;28;20446;-65